sensor_id;sensor_type;location;lat;lon;timestamp;temperature;humidity
59162;DHT22;44942;48.936;8.260;2023-02-03T00:02:36;20.20;52.20
59162;DHT22;44942;48.936;8.260;2023-02-03T00:07:37;20.30;52.30
59162;DHT22;44942;48.936;8.260;2023-02-03T00:12:39;20.20;52.20
59162;DHT22;44942;48.936;8.260;2023-02-03T00:17:39;20.20;52.30
59162;DHT22;44942;48.936;8.260;2023-02-03T00:22:40;20.20;52.30
59162;DHT22;44942;48.936;8.260;2023-02-03T00:27:40;20.20;52.40
59162;DHT22;44942;48.936;8.260;2023-02-03T00:32:41;20.20;52.50
59162;DHT22;44942;48.936;8.260;2023-02-03T00:37:41;20.20;52.50
59162;DHT22;44942;48.936;8.260;2023-02-03T00:42:42;20.20;52.50
59162;DHT22;44942;48.936;8.260;2023-02-03T00:47:42;20.20;52.60
59162;DHT22;44942;48.936;8.260;2023-02-03T00:52:43;20.20;52.70
59162;DHT22;44942;48.936;8.260;2023-02-03T00:57:43;20.20;52.60
59162;DHT22;44942;48.936;8.260;2023-02-03T01:02:44;20.20;52.60
59162;DHT22;44942;48.936;8.260;2023-02-03T01:07:45;20.20;52.70
59162;DHT22;44942;48.936;8.260;2023-02-03T01:12:46;20.20;52.60
59162;DHT22;44942;48.936;8.260;2023-02-03T01:17:47;20.20;52.60
59162;DHT22;44942;48.936;8.260;2023-02-03T01:22:47;20.20;52.70
59162;DHT22;44942;48.936;8.260;2023-02-03T01:27:48;20.20;52.70
59162;DHT22;44942;48.936;8.260;2023-02-03T01:32:48;20.20;52.70
59162;DHT22;44942;48.936;8.260;2023-02-03T01:37:49;20.20;52.70
59162;DHT22;44942;48.936;8.260;2023-02-03T01:42:49;20.10;52.70
59162;DHT22;44942;48.936;8.260;2023-02-03T01:47:54;20.20;52.70
59162;DHT22;44942;48.936;8.260;2023-02-03T01:53:06;20.10;52.70
59162;DHT22;44942;48.936;8.260;2023-02-03T01:58:15;20.10;52.70
59162;DHT22;44942;48.936;8.260;2023-02-03T02:03:21;20.10;52.60
59162;DHT22;44942;48.936;8.260;2023-02-03T02:08:23;20.10;52.60
59162;DHT22;44942;48.936;8.260;2023-02-03T02:13:24;20.10;52.70
59162;DHT22;44942;48.936;8.260;2023-02-03T02:34:52;20.10;52.60
59162;DHT22;44942;48.936;8.260;2023-02-03T02:40:35;20.10;52.70
59162;DHT22;44942;48.936;8.260;2023-02-03T02:45:49;20.10;52.70
59162;DHT22;44942;48.936;8.260;2023-02-03T02:50:52;20.10;53.40
59162;DHT22;44942;48.936;8.260;2023-02-03T02:55:53;20.10;52.70
59162;DHT22;44942;48.936;8.260;2023-02-03T03:00:57;20.10;52.70
59162;DHT22;44942;48.936;8.260;2023-02-03T03:06:04;20.10;52.60
59162;DHT22;44942;48.936;8.260;2023-02-03T03:11:06;20.10;52.70
59162;DHT22;44942;48.936;8.260;2023-02-03T03:16:08;20.10;52.70
59162;DHT22;44942;48.936;8.260;2023-02-03T03:21:15;20.00;52.70
59162;DHT22;44942;48.936;8.260;2023-02-03T03:31:27;20.00;52.70
59162;DHT22;44942;48.936;8.260;2023-02-03T03:42:00;20.10;52.70
59162;DHT22;44942;48.936;8.260;2023-02-03T03:47:23;20.10;52.80
59162;DHT22;44942;48.936;8.260;2023-02-03T03:52:31;20.10;52.70
59162;DHT22;44942;48.936;8.260;2023-02-03T03:57:47;20.10;52.70
59162;DHT22;44942;48.936;8.260;2023-02-03T04:02:52;20.10;52.70
59162;DHT22;44942;48.936;8.260;2023-02-03T04:07:55;20.00;52.70
59162;DHT22;44942;48.936;8.260;2023-02-03T04:12:55;20.00;52.70
59162;DHT22;44942;48.936;8.260;2023-02-03T04:17:56;20.00;52.60
59162;DHT22;44942;48.936;8.260;2023-02-03T04:22:57;20.00;52.60
59162;DHT22;44942;48.936;8.260;2023-02-03T04:27:58;20.00;52.60
59162;DHT22;44942;48.936;8.260;2023-02-03T04:32:59;20.00;52.60
59162;DHT22;44942;48.936;8.260;2023-02-03T04:38:00;20.00;52.60
59162;DHT22;44942;48.936;8.260;2023-02-03T04:43:07;20.00;52.50
59162;DHT22;44942;48.936;8.260;2023-02-03T04:48:07;20.00;52.60
59162;DHT22;44942;48.936;8.260;2023-02-03T04:53:08;20.00;52.60
59162;DHT22;44942;48.936;8.260;2023-02-03T04:58:09;20.00;52.60
59162;DHT22;44942;48.936;8.260;2023-02-03T05:03:09;20.00;52.60
59162;DHT22;44942;48.936;8.260;2023-02-03T05:08:10;20.00;52.60
59162;DHT22;44942;48.936;8.260;2023-02-03T05:13:10;20.00;52.50
59162;DHT22;44942;48.936;8.260;2023-02-03T05:18:11;19.90;52.50
59162;DHT22;44942;48.936;8.260;2023-02-03T05:23:11;20.00;53.30
59162;DHT22;44942;48.936;8.260;2023-02-03T05:28:12;20.00;52.60
59162;DHT22;44942;48.936;8.260;2023-02-03T05:33:13;19.90;52.50
59162;DHT22;44942;48.936;8.260;2023-02-03T05:38:13;20.00;52.50
59162;DHT22;44942;48.936;8.260;2023-02-03T05:43:14;19.90;52.50
59162;DHT22;44942;48.936;8.260;2023-02-03T05:48:14;19.90;52.40
59162;DHT22;44942;48.936;8.260;2023-02-03T05:53:15;20.00;52.50
59162;DHT22;44942;48.936;8.260;2023-02-03T05:58:15;19.90;52.40
59162;DHT22;44942;48.936;8.260;2023-02-03T06:03:16;20.00;52.40
59162;DHT22;44942;48.936;8.260;2023-02-03T06:08:16;19.90;52.40
59162;DHT22;44942;48.936;8.260;2023-02-03T06:13:17;19.90;52.40
59162;DHT22;44942;48.936;8.260;2023-02-03T06:18:18;19.90;52.40
59162;DHT22;44942;48.936;8.260;2023-02-03T06:23:19;19.90;52.40
59162;DHT22;44942;48.936;8.260;2023-02-03T06:28:19;19.90;52.40
59162;DHT22;44942;48.936;8.260;2023-02-03T06:33:20;19.90;52.40
59162;DHT22;44942;48.936;8.260;2023-02-03T06:38:21;19.90;52.40
59162;DHT22;44942;48.936;8.260;2023-02-03T06:43:21;19.90;52.40
59162;DHT22;44942;48.936;8.260;2023-02-03T06:48:22;19.90;52.40
59162;DHT22;44942;48.936;8.260;2023-02-03T06:53:23;19.90;52.30
59162;DHT22;44942;48.936;8.260;2023-02-03T06:58:23;19.90;52.40
59162;DHT22;44942;48.936;8.260;2023-02-03T07:03:24;19.90;52.40
59162;DHT22;44942;48.936;8.260;2023-02-03T07:08:25;19.90;52.30
59162;DHT22;44942;48.936;8.260;2023-02-03T07:13:25;19.90;52.20
59162;DHT22;44942;48.936;8.260;2023-02-03T07:18:26;19.80;52.30
59162;DHT22;44942;48.936;8.260;2023-02-03T07:23:26;19.30;50.30
59162;DHT22;44942;48.936;8.260;2023-02-03T07:28:27;19.30;49.90
59162;DHT22;44942;48.936;8.260;2023-02-03T07:33:27;19.30;49.60
59162;DHT22;44942;48.936;8.260;2023-02-03T07:38:28;19.40;49.50
59162;DHT22;44942;48.936;8.260;2023-02-03T07:43:29;19.50;49.50
59162;DHT22;44942;48.936;8.260;2023-02-03T07:48:29;19.50;49.50
59162;DHT22;44942;48.936;8.260;2023-02-03T07:53:30;19.50;49.50
59162;DHT22;44942;48.936;8.260;2023-02-03T07:58:31;19.50;49.50
59162;DHT22;44942;48.936;8.260;2023-02-03T08:03:32;19.50;49.60
59162;DHT22;44942;48.936;8.260;2023-02-03T08:08:33;19.50;49.70
59162;DHT22;44942;48.936;8.260;2023-02-03T08:13:34;19.50;49.70
59162;DHT22;44942;48.936;8.260;2023-02-03T08:18:34;19.50;49.70
59162;DHT22;44942;48.936;8.260;2023-02-03T08:23:35;19.50;49.80
59162;DHT22;44942;48.936;8.260;2023-02-03T08:28:35;19.50;49.80
59162;DHT22;44942;48.936;8.260;2023-02-03T08:33:36;19.50;50.60
59162;DHT22;44942;48.936;8.260;2023-02-03T08:38:37;19.50;49.90
59162;DHT22;44942;48.936;8.260;2023-02-03T08:43:38;19.50;49.90
59162;DHT22;44942;48.936;8.260;2023-02-03T08:48:39;19.50;49.90
59162;DHT22;44942;48.936;8.260;2023-02-03T08:53:40;19.50;50.00
59162;DHT22;44942;48.936;8.260;2023-02-03T08:58:41;19.50;50.00
59162;DHT22;44942;48.936;8.260;2023-02-03T09:03:42;19.50;50.00
59162;DHT22;44942;48.936;8.260;2023-02-03T09:08:43;19.50;50.10
59162;DHT22;44942;48.936;8.260;2023-02-03T09:13:46;19.50;50.10
59162;DHT22;44942;48.936;8.260;2023-02-03T09:18:48;19.50;50.10
59162;DHT22;44942;48.936;8.260;2023-02-03T09:23:48;19.50;50.10
59162;DHT22;44942;48.936;8.260;2023-02-03T09:28:49;19.50;50.10
59162;DHT22;44942;48.936;8.260;2023-02-03T09:33:52;19.50;50.30
59162;DHT22;44942;48.936;8.260;2023-02-03T09:38:53;19.50;50.20
59162;DHT22;44942;48.936;8.260;2023-02-03T09:49:27;19.50;50.40
59162;DHT22;44942;48.936;8.260;2023-02-03T09:59:42;19.50;50.50
59162;DHT22;44942;48.936;8.260;2023-02-03T10:04:54;19.50;50.50
59162;DHT22;44942;48.936;8.260;2023-02-03T10:10:17;19.50;50.60
59162;DHT22;44942;48.936;8.260;2023-02-03T10:15:39;19.50;50.70
59162;DHT22;44942;48.936;8.260;2023-02-03T10:20:50;19.50;50.70
59162;DHT22;44942;48.936;8.260;2023-02-03T10:25:54;19.50;50.80
59162;DHT22;44942;48.936;8.260;2023-02-03T10:30:58;19.50;50.80
59162;DHT22;44942;48.936;8.260;2023-02-03T10:36:21;19.50;51.60
59162;DHT22;44942;48.936;8.260;2023-02-03T10:41:23;19.60;51.00
59162;DHT22;44942;48.936;8.260;2023-02-03T10:46:29;19.60;51.00
59162;DHT22;44942;48.936;8.260;2023-02-03T10:51:36;19.60;51.10
59162;DHT22;44942;48.936;8.260;2023-02-03T10:56:38;19.60;51.20
59162;DHT22;44942;48.936;8.260;2023-02-03T11:01:43;19.60;51.20
59162;DHT22;44942;48.936;8.260;2023-02-03T11:06:54;19.60;51.30
59162;DHT22;44942;48.936;8.260;2023-02-03T11:12:12;19.60;51.40
59162;DHT22;44942;48.936;8.260;2023-02-03T11:17:34;19.70;51.50
59162;DHT22;44942;48.936;8.260;2023-02-03T11:22:37;19.70;51.70
59162;DHT22;44942;48.936;8.260;2023-02-03T11:27:39;19.70;51.70
59162;DHT22;44942;48.936;8.260;2023-02-03T11:32:41;19.70;51.80
59162;DHT22;44942;48.936;8.260;2023-02-03T11:37:44;19.70;51.90
59162;DHT22;44942;48.936;8.260;2023-02-03T11:42:59;19.70;51.90
59162;DHT22;44942;48.936;8.260;2023-02-03T12:04:09;19.70;51.70
59162;DHT22;44942;48.936;8.260;2023-02-03T12:09:27;19.70;51.70
59162;DHT22;44942;48.936;8.260;2023-02-03T12:15:11;19.70;51.70
59162;DHT22;44942;48.936;8.260;2023-02-03T12:20:26;19.70;51.60
59162;DHT22;44942;48.936;8.260;2023-02-03T12:31:16;19.70;51.50
59162;DHT22;44942;48.936;8.260;2023-02-03T12:36:26;19.70;51.40
59162;DHT22;44942;48.936;8.260;2023-02-03T12:41:32;19.70;51.40
59162;DHT22;44942;48.936;8.260;2023-02-03T12:46:36;19.80;51.30
59162;DHT22;44942;48.936;8.260;2023-02-03T12:51:50;19.70;51.30
59162;DHT22;44942;48.936;8.260;2023-02-03T12:56:54;19.70;51.10
59162;DHT22;44942;48.936;8.260;2023-02-03T13:02:07;19.70;51.00
59162;DHT22;44942;48.936;8.260;2023-02-03T13:07:23;19.80;51.00
59162;DHT22;44942;48.936;8.260;2023-02-03T13:12:49;19.80;51.00
59162;DHT22;44942;48.936;8.260;2023-02-03T13:23:05;19.80;51.00
59162;DHT22;44942;48.936;8.260;2023-02-03T13:39:16;19.80;51.20
59162;DHT22;44942;48.936;8.260;2023-02-03T13:44:24;19.80;51.20
59162;DHT22;44942;48.936;8.260;2023-02-03T13:49:32;19.90;51.40
59162;DHT22;44942;48.936;8.260;2023-02-03T13:54:36;19.90;51.50
59162;DHT22;44942;48.936;8.260;2023-02-03T14:10:08;19.90;51.70
59162;DHT22;44942;48.936;8.260;2023-02-03T14:25:26;20.00;51.80
59162;DHT22;44942;48.936;8.260;2023-02-03T14:30:27;20.00;51.80
59162;DHT22;44942;48.936;8.260;2023-02-03T14:35:38;20.10;51.90
59162;DHT22;44942;48.936;8.260;2023-02-03T14:40:58;20.10;51.90
59162;DHT22;44942;48.936;8.260;2023-02-03T14:52:27;20.10;51.90
59162;DHT22;44942;48.936;8.260;2023-02-03T15:08:44;20.20;52.30
59162;DHT22;44942;48.936;8.260;2023-02-03T15:13:45;20.30;52.60
59162;DHT22;44942;48.936;8.260;2023-02-03T15:18:53;20.30;53.30
59162;DHT22;44942;48.936;8.260;2023-02-03T15:23:53;20.40;53.00
59162;DHT22;44942;48.936;8.260;2023-02-03T15:33:56;20.40;53.20
59162;DHT22;44942;48.936;8.260;2023-02-03T15:39:15;20.40;53.30
59162;DHT22;44942;48.936;8.260;2023-02-03T15:44:28;20.50;53.40
59162;DHT22;44942;48.936;8.260;2023-02-03T15:49:34;20.50;53.40
59162;DHT22;44942;48.936;8.260;2023-02-03T15:54:41;20.50;53.40
59162;DHT22;44942;48.936;8.260;2023-02-03T16:00:21;20.50;53.30
59162;DHT22;44942;48.936;8.260;2023-02-03T16:05:32;20.50;53.30
59162;DHT22;44942;48.936;8.260;2023-02-03T16:10:33;20.60;53.30
59162;DHT22;44942;48.936;8.260;2023-02-03T16:15:34;20.60;53.10
59162;DHT22;44942;48.936;8.260;2023-02-03T16:20:35;20.60;53.10
59162;DHT22;44942;48.936;8.260;2023-02-03T16:25:36;20.60;53.00
59162;DHT22;44942;48.936;8.260;2023-02-03T16:30:37;20.60;53.00
59162;DHT22;44942;48.936;8.260;2023-02-03T16:36:08;20.70;52.90
59162;DHT22;44942;48.936;8.260;2023-02-03T16:41:28;20.70;53.60
59162;DHT22;44942;48.936;8.260;2023-02-03T16:46:49;20.70;52.90
59162;DHT22;44942;48.936;8.260;2023-02-03T16:52:08;20.70;52.90
59162;DHT22;44942;48.936;8.260;2023-02-03T16:57:09;20.70;52.80
59162;DHT22;44942;48.936;8.260;2023-02-03T17:02:09;20.70;52.90
59162;DHT22;44942;48.936;8.260;2023-02-03T17:07:10;20.80;52.90
59162;DHT22;44942;48.936;8.260;2023-02-03T17:12:11;20.80;52.80
59162;DHT22;44942;48.936;8.260;2023-02-03T17:17:11;20.80;52.80
59162;DHT22;44942;48.936;8.260;2023-02-03T17:22:12;20.80;52.80
59162;DHT22;44942;48.936;8.260;2023-02-03T17:27:12;20.80;52.70
59162;DHT22;44942;48.936;8.260;2023-02-03T17:32:13;20.80;52.70
59162;DHT22;44942;48.936;8.260;2023-02-03T17:37:15;20.80;52.90
59162;DHT22;44942;48.936;8.260;2023-02-03T17:42:16;20.80;52.90
59162;DHT22;44942;48.936;8.260;2023-02-03T17:47:16;20.80;52.90
59162;DHT22;44942;48.936;8.260;2023-02-03T17:52:17;20.80;53.00
59162;DHT22;44942;48.936;8.260;2023-02-03T17:57:18;20.80;52.90
59162;DHT22;44942;48.936;8.260;2023-02-03T18:02:18;20.80;52.90
59162;DHT22;44942;48.936;8.260;2023-02-03T18:07:19;20.80;52.80
59162;DHT22;44942;48.936;8.260;2023-02-03T18:12:19;20.80;52.80
59162;DHT22;44942;48.936;8.260;2023-02-03T18:17:20;20.80;52.70
59162;DHT22;44942;48.936;8.260;2023-02-03T18:22:20;20.80;53.40
59162;DHT22;44942;48.936;8.260;2023-02-03T18:27:21;20.80;52.60
59162;DHT22;44942;48.936;8.260;2023-02-03T18:32:22;20.80;52.60
59162;DHT22;44942;48.936;8.260;2023-02-03T18:37:22;20.80;52.60
59162;DHT22;44942;48.936;8.260;2023-02-03T18:42:23;20.80;52.50
59162;DHT22;44942;48.936;8.260;2023-02-03T18:47:23;20.80;52.50
59162;DHT22;44942;48.936;8.260;2023-02-03T18:52:24;20.80;52.40
59162;DHT22;44942;48.936;8.260;2023-02-03T18:57:25;20.80;52.30
59162;DHT22;44942;48.936;8.260;2023-02-03T19:02:26;20.80;52.30
59162;DHT22;44942;48.936;8.260;2023-02-03T19:07:27;20.80;52.30
59162;DHT22;44942;48.936;8.260;2023-02-03T19:12:27;20.70;52.20
59162;DHT22;44942;48.936;8.260;2023-02-03T19:17:28;20.70;52.10
59162;DHT22;44942;48.936;8.260;2023-02-03T19:22:29;20.70;52.10
59162;DHT22;44942;48.936;8.260;2023-02-03T19:27:30;20.70;52.10
59162;DHT22;44942;48.936;8.260;2023-02-03T19:32:31;20.70;52.00
59162;DHT22;44942;48.936;8.260;2023-02-03T19:37:32;20.70;52.00
59162;DHT22;44942;48.936;8.260;2023-02-03T19:42:32;20.70;51.90
59162;DHT22;44942;48.936;8.260;2023-02-03T19:47:33;20.70;51.90
59162;DHT22;44942;48.936;8.260;2023-02-03T19:52:34;20.70;51.90
59162;DHT22;44942;48.936;8.260;2023-02-03T19:57:34;20.70;51.90
59162;DHT22;44942;48.936;8.260;2023-02-03T20:02:36;20.70;51.80
59162;DHT22;44942;48.936;8.260;2023-02-03T20:07:37;20.70;51.80
59162;DHT22;44942;48.936;8.260;2023-02-03T20:12:37;20.70;51.80
59162;DHT22;44942;48.936;8.260;2023-02-03T20:17:38;20.70;51.70
59162;DHT22;44942;48.936;8.260;2023-02-03T20:22:38;20.70;51.80
59162;DHT22;44942;48.936;8.260;2023-02-03T20:27:39;20.60;51.60
59162;DHT22;44942;48.936;8.260;2023-02-03T20:32:40;20.70;51.70
59162;DHT22;44942;48.936;8.260;2023-02-03T20:37:40;20.60;51.60
59162;DHT22;44942;48.936;8.260;2023-02-03T20:42:41;20.60;51.60
59162;DHT22;44942;48.936;8.260;2023-02-03T20:47:42;20.60;51.60
59162;DHT22;44942;48.936;8.260;2023-02-03T20:52:46;20.60;51.50
59162;DHT22;44942;48.936;8.260;2023-02-03T20:57:47;20.60;51.50
59162;DHT22;44942;48.936;8.260;2023-02-03T21:02:50;20.60;51.60
59162;DHT22;44942;48.936;8.260;2023-02-03T21:08:14;20.60;51.50
59162;DHT22;44942;48.936;8.260;2023-02-03T21:13:24;20.60;51.50
59162;DHT22;44942;48.936;8.260;2023-02-03T21:18:49;20.60;51.50
59162;DHT22;44942;48.936;8.260;2023-02-03T21:23:52;20.60;51.50
59162;DHT22;44942;48.936;8.260;2023-02-03T21:28:55;20.60;51.40
59162;DHT22;44942;48.936;8.260;2023-02-03T21:34:01;20.50;51.40
59162;DHT22;44942;48.936;8.260;2023-02-03T21:39:18;20.50;51.40
59162;DHT22;44942;48.936;8.260;2023-02-03T21:44:31;20.50;51.30
59162;DHT22;44942;48.936;8.260;2023-02-03T21:49:35;20.50;51.30
59162;DHT22;44942;48.936;8.260;2023-02-03T21:54:37;20.50;51.40
59162;DHT22;44942;48.936;8.260;2023-02-03T21:59:41;20.50;51.50
59162;DHT22;44942;48.936;8.260;2023-02-03T22:04:45;20.60;51.70
59162;DHT22;44942;48.936;8.260;2023-02-03T22:09:46;20.50;51.70
59162;DHT22;44942;48.936;8.260;2023-02-03T22:14:49;20.50;51.80
59162;DHT22;44942;48.936;8.260;2023-02-03T22:19:50;20.60;51.90
59162;DHT22;44942;48.936;8.260;2023-02-03T22:24:50;20.60;51.90
59162;DHT22;44942;48.936;8.260;2023-02-03T22:29:51;20.50;52.00
59162;DHT22;44942;48.936;8.260;2023-02-03T22:34:55;20.60;52.10
59162;DHT22;44942;48.936;8.260;2023-02-03T22:39:56;20.60;52.30
59162;DHT22;44942;48.936;8.260;2023-02-03T22:44:57;20.60;52.40
59162;DHT22;44942;48.936;8.260;2023-02-03T22:49:58;20.60;52.60
59162;DHT22;44942;48.936;8.260;2023-02-03T22:54:58;20.60;52.60
59162;DHT22;44942;48.936;8.260;2023-02-03T22:59:59;20.60;52.60
59162;DHT22;44942;48.936;8.260;2023-02-03T23:05:00;20.60;52.60
59162;DHT22;44942;48.936;8.260;2023-02-03T23:10:01;20.60;53.40
59162;DHT22;44942;48.936;8.260;2023-02-03T23:15:02;20.60;52.70
59162;DHT22;44942;48.936;8.260;2023-02-03T23:20:04;20.60;52.60
59162;DHT22;44942;48.936;8.260;2023-02-03T23:25:06;20.60;52.70
59162;DHT22;44942;48.936;8.260;2023-02-03T23:30:07;20.60;52.70
59162;DHT22;44942;48.936;8.260;2023-02-03T23:35:10;20.60;52.70
59162;DHT22;44942;48.936;8.260;2023-02-03T23:40:30;20.60;52.70
59162;DHT22;44942;48.936;8.260;2023-02-03T23:45:30;20.60;52.80
59162;DHT22;44942;48.936;8.260;2023-02-03T23:50:31;20.60;52.80
59162;DHT22;44942;48.936;8.260;2023-02-03T23:55:31;20.60;53.50
